createdAt,value
2018-05-18T00:02:29.217Z,87.87
2018-05-18T00:05:00.530Z,94.13
2018-05-18T00:07:29.400Z,88.27
2018-05-18T00:10:09.166Z,102.40
2018-05-18T00:12:38.244Z,108.20
2018-05-18T00:15:10.855Z,110.63
2018-05-18T00:17:39.161Z,107.40
2018-05-18T00:22:48.829Z,89.23
2018-05-18T00:25:17.577Z,97.93
2018-05-18T00:27:47.901Z,108.60
2018-05-18T00:30:20.794Z,102.37
2018-05-18T00:33:09.159Z,103.30
2018-05-18T00:44:20.004Z,91.37
2018-05-18T00:46:55.887Z,104.43
2018-05-18T00:49:26.689Z,109.20
2018-05-18T00:52:09.253Z,101.57
2018-05-18T00:54:45.524Z,90.83
2018-05-18T00:57:18.899Z,96.70
2018-05-18T00:59:53.738Z,115.23
2018-05-18T01:02:26.041Z,121.60
2018-05-18T01:04:57.616Z,107.77
2018-05-18T01:07:27.640Z,123.67
2018-05-18T01:10:13.577Z,114.67
2018-05-18T01:15:45.874Z,117.70
2018-05-18T01:18:30.256Z,120.07
2018-05-18T01:21:06.744Z,116.10
2018-05-18T01:26:35.519Z,111.83
2018-05-18T01:29:07.016Z,121.53
2018-05-18T01:31:37.457Z,115.43
2018-05-18T01:34:11.736Z,112.27
2018-05-18T01:39:20.742Z,103.90
2018-05-18T01:41:53.769Z,112.47
2018-05-18T01:47:01.198Z,92.13
2018-05-18T01:49:31.226Z,98.80
2018-05-18T01:52:03.748Z,115.17
2018-05-18T01:57:16.571Z,110.30
2018-05-18T01:59:51.735Z,111.50
2018-05-18T02:05:03.865Z,107.47
2018-05-18T02:07:55.754Z,117.67
2018-05-18T02:10:38.838Z,120.73
2018-05-18T02:13:21.456Z,129.97
2018-05-18T02:27:27.783Z,164.60
2018-05-18T02:30:01.877Z,150.40
2018-05-18T02:32:33.593Z,173.93
2018-05-18T02:37:58.222Z,161.77
2018-05-18T02:40:41.527Z,174.63
2018-05-18T02:48:17.474Z,180.13
2018-05-18T02:50:49.757Z,197.27
2018-05-18T02:53:21.729Z,173.20
2018-05-18T03:03:19.618Z,165.40
2018-05-18T03:14:48.100Z,176.33
2018-05-18T03:20:22.047Z,175.00
2018-05-18T03:43:37.309Z,102.87
2018-05-18T04:11:45.372Z,114.07
2018-05-18T04:14:19.429Z,103.50
2018-05-18T04:17:00.993Z,108.90
2018-05-18T04:19:43.119Z,106.73
2018-05-18T04:45:12.560Z,104.33
2018-05-18T04:50:45.129Z,100.17
2018-05-18T04:53:16.725Z,97.00
2018-05-18T04:55:51.263Z,105.10
2018-05-18T04:58:24.841Z,93.97
2018-05-18T05:00:57.719Z,102.20
2018-05-18T05:03:27.747Z,115.03
2018-05-18T05:06:05.574Z,106.77
2018-05-18T05:08:37.465Z,112.20
2018-05-18T05:11:08.288Z,96.93
2018-05-18T05:13:48.801Z,98.17
2018-05-18T05:16:22.584Z,99.67
2018-05-18T05:18:57.360Z,110.83
2018-05-18T05:24:09.009Z,119.83
2018-05-18T05:26:50.352Z,108.63
2018-05-18T05:29:23.089Z,107.13
2018-05-18T05:31:55.574Z,101.40
2018-05-18T05:34:27.668Z,99.13
2018-05-18T05:37:02.324Z,106.40
2018-05-18T05:39:37.995Z,89.83
2018-05-18T05:42:23.892Z,97.10
2018-05-18T05:45:00.490Z,99.70
2018-05-18T05:47:29.227Z,99.57
2018-05-18T05:50:00.104Z,88.97
2018-05-18T05:52:30.485Z,117.17
2018-05-18T05:57:59.482Z,106.37
2018-05-18T06:11:46.582Z,93.60
2018-05-18T06:23:21.631Z,86.63
2018-05-18T06:45:47.883Z,79.43
2018-05-18T06:48:28.577Z,69.20
2018-05-18T06:53:58.962Z,73.73
2018-05-18T06:56:39.477Z,88.87
2018-05-18T06:59:21.033Z,96.00
2018-05-18T07:02:02.019Z,74.50
2018-05-18T07:04:42.414Z,68.67
2018-05-18T07:07:25.434Z,74.83
2018-05-18T07:10:05.743Z,77.23
2018-05-18T07:12:47.140Z,66.70
2018-05-18T07:15:28.902Z,78.20
2018-05-18T07:18:12.759Z,78.37
2018-05-18T07:20:58.354Z,63.30
2018-05-18T07:23:41.271Z,76.77
2018-05-18T07:26:24.685Z,67.07
2018-05-18T07:29:05.772Z,67.43
2018-05-18T07:31:45.942Z,55.23
2018-05-18T07:34:28.362Z,57.33
2018-05-18T07:37:10.918Z,59.90
2018-05-18T07:39:52.721Z,59.23
2018-05-18T07:42:33.375Z,56.43
2018-05-18T07:45:13.670Z,53.47
2018-05-18T07:47:54.985Z,39.97
2018-05-18T07:50:35.638Z,39.20
2018-05-18T07:53:15.620Z,54.80
2018-05-18T07:55:56.959Z,48.77
2018-05-18T07:58:38.126Z,56.83
2018-05-18T08:01:17.701Z,61.87
2018-05-18T08:04:07.782Z,48.93
2018-05-18T08:06:50.740Z,49.93
2018-05-18T08:12:06.485Z,37.70
2018-05-18T08:14:38.057Z,44.57
2018-05-18T08:17:07.292Z,61.83
2018-05-18T08:19:42.320Z,35.73
2018-05-18T08:22:18.216Z,43.30
2018-05-18T08:24:50.766Z,46.00
2018-05-18T08:27:40.189Z,45.93
2018-05-18T08:30:15.699Z,38.03
2018-05-18T08:35:19.783Z,43.03
2018-05-18T08:37:51.280Z,44.20
2018-05-18T08:40:21.260Z,35.50
2018-05-18T08:42:54.043Z,47.23
2018-05-18T08:45:41.574Z,37.83
2018-05-18T08:48:12.820Z,46.57
2018-05-18T08:50:47.649Z,41.00
2018-05-18T08:53:16.229Z,48.20
2018-05-18T08:55:48.554Z,33.40
2018-05-18T08:58:17.165Z,37.30
2018-05-18T09:00:52.940Z,39.47
2018-05-18T09:06:19.795Z,35.30
2018-05-18T09:20:09.144Z,40.57
2018-05-18T09:22:39.699Z,58.83
2018-05-18T09:25:08.646Z,58.40
2018-05-18T09:27:39.906Z,45.33
2018-05-18T09:30:17.463Z,41.33
2018-05-18T09:32:52.867Z,62.00
2018-05-18T09:35:37.180Z,40.43
2018-05-18T09:38:11.431Z,46.33
2018-05-18T09:40:41.330Z,59.70
2018-05-18T09:53:36.872Z,49.03
2018-05-18T09:56:09.106Z,39.57
2018-05-18T09:58:38.691Z,42.53
2018-05-18T10:01:27.873Z,39.30
2018-05-18T10:03:59.333Z,38.47
2018-05-18T10:06:31.057Z,40.70
2018-05-18T10:09:12.670Z,33.03
2018-05-18T10:15:27.880Z,54.20
2018-05-18T10:18:12.134Z,49.40
2018-05-18T10:20:41.460Z,38.07
2018-05-18T10:28:51.698Z,35.07
2018-05-18T10:31:26.831Z,42.37
2018-05-18T10:34:10.978Z,42.43
2018-05-18T10:39:28.112Z,45.50
2018-05-18T10:42:11.824Z,33.47
2018-05-18T10:44:46.014Z,39.53
2018-05-18T10:47:20.841Z,35.33
2018-05-18T10:49:54.061Z,37.03
2018-05-18T10:57:53.030Z,43.97
2018-05-18T11:03:25.334Z,36.03
2018-05-18T11:05:56.644Z,28.23
2018-05-18T11:08:26.733Z,39.63
2018-05-18T11:11:06.868Z,28.23
2018-05-18T11:13:36.089Z,31.13
2018-05-18T11:16:31.013Z,25.43
2018-05-18T11:19:19.103Z,37.20
2018-05-18T11:21:55.348Z,35.43
2018-05-18T11:24:30.830Z,37.50
2018-05-18T11:35:19.346Z,35.20
2018-05-18T11:38:16.880Z,31.17
2018-05-18T11:41:02.521Z,33.77
2018-05-18T11:43:43.219Z,28.73
2018-05-18T11:49:20.433Z,40.87
2018-05-18T11:54:55.950Z,37.13
2018-05-18T12:02:53.651Z,31.30
2018-05-18T12:20:12.882Z,33.57
2018-05-18T12:22:51.979Z,28.20
2018-05-18T12:28:25.171Z,50.10
2018-05-18T12:45:57.928Z,21.53
2018-05-18T12:54:06.690Z,20.70
2018-05-18T13:05:44.589Z,28.47
2018-05-18T13:08:15.330Z,33.47
2018-05-18T13:13:54.969Z,26.80
2018-05-18T13:16:44.212Z,28.97
2018-05-18T13:22:43.099Z,27.93
2018-05-18T13:31:35.091Z,23.50
2018-05-18T13:45:47.633Z,24.63
2018-05-18T13:51:40.879Z,25.00
2018-05-18T14:03:26.722Z,33.83
2018-05-18T14:06:19.042Z,29.43
2018-05-18T14:08:53.594Z,24.97
2018-05-18T14:20:20.007Z,28.30
2018-05-18T14:23:13.064Z,30.13
2018-05-18T14:25:58.970Z,28.00
2018-05-18T14:28:40.609Z,27.43
2018-05-18T14:43:30.779Z,22.03
2018-05-18T14:49:20.893Z,29.77
2018-05-18T14:58:20.067Z,30.17
2018-05-18T15:01:02.829Z,40.97
2018-05-18T15:03:40.069Z,23.13
2018-05-18T15:21:19.106Z,25.50
2018-05-18T15:35:34.930Z,25.23
2018-05-18T15:47:02.433Z,39.80
2018-05-18T15:52:35.211Z,28.60
2018-05-18T16:06:42.793Z,31.87
2018-05-18T16:26:40.380Z,39.20
2018-05-18T16:29:19.680Z,45.87
2018-05-18T16:31:53.665Z,44.27
2018-05-18T16:34:38.875Z,31.07
2018-05-18T16:37:23.367Z,36.80
2018-05-18T16:45:48.006Z,36.40
2018-05-18T16:56:46.773Z,39.97
2018-05-18T16:59:33.091Z,40.10
2018-05-18T17:02:04.705Z,42.97
2018-05-18T17:04:48.109Z,41.13
2018-05-18T17:07:17.817Z,45.03
2018-05-18T17:09:57.800Z,39.20
2018-05-18T17:12:37.030Z,41.50
2018-05-18T17:15:09.042Z,39.73
2018-05-18T17:17:39.505Z,47.53
2018-05-18T17:20:25.921Z,49.33
2018-05-18T17:23:02.129Z,41.50
2018-05-18T17:25:37.416Z,45.03
2018-05-18T17:28:12.221Z,42.77
2018-05-18T17:36:24.453Z,40.07
2018-05-18T17:38:58.589Z,47.97
2018-05-18T18:28:27.319Z,52.40
2018-05-18T18:31:08.442Z,57.47
2018-05-18T18:33:44.637Z,50.37
2018-05-18T18:36:13.905Z,49.40
2018-05-18T18:38:44.308Z,58.43
2018-05-18T18:41:13.429Z,57.30
2018-05-18T18:46:40.600Z,63.57
2018-05-18T18:49:09.954Z,73.10
2018-05-18T18:51:38.191Z,58.40
2018-05-18T18:54:08.038Z,54.80
2018-05-18T18:56:44.825Z,66.50
2018-05-18T18:59:12.982Z,65.47
2018-05-18T19:01:53.815Z,60.67
2018-05-18T19:04:23.335Z,63.30
2018-05-18T19:09:38.410Z,57.83
2018-05-18T19:12:11.725Z,59.90
2018-05-18T19:14:44.508Z,63.00
2018-05-18T19:17:14.035Z,62.23
2018-05-18T19:19:43.817Z,71.53
2018-05-18T19:22:13.027Z,68.10
2018-05-18T19:27:28.506Z,62.13
2018-05-18T19:29:58.238Z,67.20
2018-05-18T19:32:30.165Z,69.07
2018-05-18T19:34:59.874Z,59.63
2018-05-18T19:37:29.422Z,61.50
2018-05-18T19:40:00.156Z,60.70
2018-05-18T19:42:30.393Z,63.93
2018-05-18T19:45:01.243Z,67.73
2018-05-18T19:47:29.981Z,74.43
2018-05-18T19:49:58.795Z,73.20
2018-05-18T19:52:30.782Z,80.67
2018-05-18T19:55:00.521Z,94.40
2018-05-18T19:57:30.425Z,74.93
2018-05-18T20:02:43.227Z,85.53
2018-05-18T20:05:14.169Z,94.37
2018-05-18T20:07:45.283Z,91.97
2018-05-18T20:12:55.153Z,95.00
2018-05-18T20:15:25.976Z,113.10
2018-05-18T20:17:55.724Z,94.53
2018-05-18T20:20:24.552Z,101.47
2018-05-18T20:22:55.002Z,104.90
2018-05-18T20:25:25.015Z,104.50
2018-05-18T20:27:55.828Z,106.73
2018-05-18T20:33:16.031Z,107.40
2018-05-18T20:35:48.661Z,100.70
2018-05-18T20:38:20.253Z,96.67
2018-05-18T20:47:11.283Z,101.83
2018-05-18T20:49:58.878Z,99.57
2018-05-18T20:52:42.639Z,109.37
2018-05-18T20:57:57.483Z,100.70
2018-05-18T21:00:45.592Z,107.33
2018-05-18T21:06:28.090Z,98.30
2018-05-18T21:15:06.474Z,102.40
2018-05-18T21:20:39.216Z,100.17
2018-05-18T21:23:19.685Z,96.53
2018-05-18T21:28:33.870Z,98.60
2018-05-18T21:31:06.111Z,107.57
2018-05-18T21:36:28.709Z,96.63
2018-05-18T21:38:58.440Z,102.07
2018-05-18T21:41:33.928Z,87.40
2018-05-18T21:44:08.283Z,106.80
2018-05-18T21:46:41.394Z,94.63
2018-05-18T21:52:08.886Z,92.33
2018-05-18T22:06:24.465Z,101.87
2018-05-18T22:12:02.766Z,99.27
2018-05-18T22:14:54.355Z,98.27
2018-05-18T22:26:02.053Z,90.20
2018-05-18T22:28:42.135Z,97.80
2018-05-18T22:34:16.383Z,94.50
2018-05-18T22:36:50.318Z,94.63
2018-05-18T22:39:21.278Z,109.50
2018-05-18T22:41:50.956Z,96.53
2018-05-18T22:44:24.561Z,102.93
2018-05-18T22:46:56.728Z,100.70
2018-05-18T22:49:25.553Z,98.53
2018-05-18T22:51:55.135Z,88.57
2018-05-18T22:54:25.470Z,92.67
2018-05-18T22:56:54.612Z,83.63
2018-05-18T22:59:24.704Z,94.73
2018-05-18T23:01:57.654Z,81.37
2018-05-18T23:04:26.807Z,87.40
2018-05-18T23:06:56.897Z,111.67
2018-05-18T23:09:28.125Z,100.47
2018-05-18T23:14:49.409Z,96.40
2018-05-18T23:17:24.277Z,91.67
2018-05-18T23:19:54.223Z,90.33
2018-05-18T23:22:43.177Z,86.70
2018-05-18T23:25:12.059Z,87.10
2018-05-18T23:27:44.106Z,79.17
2018-05-18T23:30:14.614Z,94.70
2018-05-18T23:32:43.593Z,83.87
2018-05-18T23:35:11.769Z,83.60
2018-05-18T23:37:49.567Z,81.30
2018-05-18T23:40:19.225Z,78.30
2018-05-18T23:42:48.886Z,75.70
2018-05-18T23:45:18.423Z,70.10
2018-05-18T23:47:48.236Z,74.63
